createdAt,value
2019-02-09T00:01:49.314Z,99.99
2019-02-09T00:02:49.212Z,99.99
2019-02-09T00:04:41.974Z,99.99
2019-02-09T00:05:41.922Z,99.99
2019-02-09T00:07:34.724Z,99.99
2019-02-09T00:08:34.683Z,99.99
2019-02-09T00:10:27.455Z,99.99
2019-02-09T00:11:27.391Z,99.99
2019-02-09T00:13:20.138Z,99.99
2019-02-09T00:14:20.065Z,99.99
2019-02-09T00:16:12.882Z,99.99
2019-02-09T00:17:12.804Z,99.99
2019-02-09T00:19:05.937Z,99.99
2019-02-09T00:20:05.865Z,99.99
2019-02-09T00:21:58.683Z,99.99
2019-02-09T00:22:58.600Z,99.99
2019-02-09T00:24:51.386Z,99.99
2019-02-09T00:25:51.314Z,99.99
2019-02-09T00:27:44.091Z,99.99
2019-02-09T00:28:44.008Z,99.99
2019-02-09T00:30:36.795Z,99.99
2019-02-09T00:31:36.745Z,99.99
2019-02-09T00:33:29.473Z,99.99
2019-02-09T00:34:29.397Z,99.99
2019-02-09T00:36:22.192Z,99.99
2019-02-09T00:37:22.101Z,99.99
2019-02-09T00:39:14.891Z,99.99
2019-02-09T00:40:14.813Z,99.99
2019-02-09T00:42:07.597Z,99.99
2019-02-09T00:43:07.512Z,99.99
2019-02-09T00:45:00.287Z,99.99
2019-02-09T00:46:00.213Z,99.99
2019-02-09T00:47:53.009Z,99.99
2019-02-09T00:48:52.914Z,99.99
2019-02-09T00:50:45.715Z,99.99
2019-02-09T00:51:45.626Z,99.99
2019-02-09T00:53:38.410Z,99.99
2019-02-09T00:54:38.338Z,99.99
2019-02-09T00:56:31.104Z,99.99
2019-02-09T00:57:31.022Z,99.99
2019-02-09T00:59:23.783Z,99.99
2019-02-09T01:00:23.708Z,99.99
2019-02-09T01:02:16.488Z,99.99
2019-02-09T01:03:16.395Z,99.99
2019-02-09T01:05:09.165Z,99.99
2019-02-09T01:06:09.132Z,99.99
2019-02-09T01:08:01.932Z,99.99
2019-02-09T01:09:01.797Z,99.99
2019-02-09T01:10:54.554Z,99.99
2019-02-09T01:11:54.517Z,99.99
2019-02-09T01:13:47.291Z,99.99
2019-02-09T01:14:47.218Z,99.99
2019-02-09T01:16:39.988Z,99.99
2019-02-09T01:17:39.908Z,99.99
2019-02-09T01:19:32.663Z,99.99
2019-02-09T01:20:32.588Z,99.99
2019-02-09T01:22:25.376Z,99.99
2019-02-09T01:23:25.280Z,99.99
2019-02-09T01:25:18.043Z,99.99
2019-02-09T01:26:17.972Z,99.99
2019-02-09T01:28:10.748Z,99.99
2019-02-09T01:29:10.660Z,99.99
2019-02-09T01:31:03.446Z,99.99
2019-02-09T01:32:03.354Z,99.99
2019-02-09T01:33:56.178Z,99.99
2019-02-09T01:34:56.034Z,99.99
2019-02-09T01:36:48.808Z,99.99
2019-02-09T01:37:48.724Z,99.99
2019-02-09T01:39:41.501Z,99.99
2019-02-09T01:40:41.425Z,99.99
2019-02-09T01:42:34.194Z,99.99
2019-02-09T01:43:34.110Z,99.99
2019-02-09T01:45:26.885Z,99.99
2019-02-09T01:46:26.825Z,99.99
2019-02-09T01:48:19.648Z,99.99
2019-02-09T01:49:19.563Z,99.99
2019-02-09T01:51:12.339Z,99.99
2019-02-09T01:52:12.249Z,99.99
2019-02-09T01:54:05.004Z,99.99
2019-02-09T01:55:05.022Z,99.99
2019-02-09T01:57:02.842Z,99.99
2019-02-09T01:58:02.763Z,99.99
2019-02-09T01:59:55.602Z,99.99
2019-02-09T02:00:55.544Z,99.99
2019-02-09T02:02:48.380Z,99.99
2019-02-09T02:03:48.233Z,99.99
2019-02-09T02:05:41.037Z,99.99
2019-02-09T02:06:40.952Z,99.99
2019-02-09T02:08:33.734Z,99.99
2019-02-09T02:09:33.668Z,99.99
2019-02-09T02:11:26.477Z,99.99
2019-02-09T02:12:26.331Z,99.99
2019-02-09T02:14:19.098Z,99.99
2019-02-09T02:15:19.036Z,99.99
2019-02-09T02:17:11.793Z,99.99
2019-02-09T02:18:11.717Z,99.99
2019-02-09T02:20:04.484Z,99.99
2019-02-09T02:21:04.393Z,99.99
2019-02-09T02:22:57.191Z,99.99
2019-02-09T02:23:57.109Z,99.99
2019-02-09T02:25:49.875Z,99.99
2019-02-09T02:26:49.797Z,99.99
2019-02-09T02:28:42.576Z,99.99
2019-02-09T02:29:42.498Z,99.99
2019-02-09T02:31:35.259Z,99.99
2019-02-09T02:32:35.177Z,99.99
2019-02-09T02:34:27.975Z,99.99
2019-02-09T02:35:27.899Z,99.99
2019-02-09T02:37:20.685Z,99.99
2019-02-09T02:38:20.579Z,99.99
2019-02-09T02:40:13.354Z,99.99
2019-02-09T02:41:13.284Z,99.99
2019-02-09T02:43:06.073Z,99.99
2019-02-09T02:44:05.987Z,99.99
2019-02-09T02:45:58.777Z,99.99
2019-02-09T02:46:58.696Z,99.99
2019-02-09T02:48:51.486Z,99.99
2019-02-09T02:49:51.388Z,99.99
2019-02-09T02:51:44.183Z,99.99
2019-02-09T02:52:44.094Z,99.99
2019-02-09T02:54:36.858Z,99.99
2019-02-09T02:55:36.793Z,99.99
2019-02-09T02:57:29.613Z,99.99
2019-02-09T02:58:29.539Z,99.99
2019-02-09T03:00:31.041Z,99.99
2019-02-09T03:01:22.201Z,99.99
2019-02-09T03:03:14.978Z,99.99
2019-02-09T03:04:14.898Z,99.99
2019-02-09T03:06:07.655Z,99.99
2019-02-09T03:07:07.582Z,99.99
2019-02-09T03:09:00.358Z,99.99
2019-02-09T03:10:00.285Z,99.99
2019-02-09T03:11:53.049Z,99.99
2019-02-09T03:12:52.966Z,99.99
2019-02-09T03:14:45.770Z,99.99
2019-02-09T03:15:45.695Z,99.99
2019-02-09T03:17:38.463Z,99.99
2019-02-09T03:18:38.375Z,99.99
2019-02-09T03:20:31.134Z,99.99
2019-02-09T03:21:31.064Z,99.99
2019-02-09T03:23:23.859Z,99.99
2019-02-09T03:24:23.772Z,99.99
2019-02-09T03:26:16.533Z,99.99
2019-02-09T03:27:16.465Z,99.99
2019-02-09T03:29:09.243Z,99.99
2019-02-09T03:30:09.170Z,99.99
2019-02-09T03:32:01.937Z,99.99
2019-02-09T03:33:01.929Z,99.99
2019-02-09T03:34:54.612Z,99.99
2019-02-09T03:35:54.541Z,99.99
2019-02-09T03:37:47.360Z,99.99
2019-02-09T03:38:47.242Z,99.99
2019-02-09T03:40:40.000Z,99.99
2019-02-09T03:41:39.914Z,99.99
2019-02-09T03:43:32.704Z,99.99
2019-02-09T03:44:32.615Z,99.99
2019-02-09T03:46:25.382Z,99.99
2019-02-09T03:47:25.314Z,99.99
2019-02-09T03:49:18.080Z,99.99
2019-02-09T03:50:18.000Z,99.99
2019-02-09T03:52:10.780Z,99.99
2019-02-09T03:53:10.696Z,99.99
2019-02-09T03:55:03.466Z,99.99
2019-02-09T03:56:03.398Z,99.99
2019-02-09T03:57:56.169Z,99.99
2019-02-09T03:58:56.088Z,99.99
2019-02-09T04:00:55.143Z,99.99
2019-02-09T04:01:48.797Z,99.99
2019-02-09T04:03:41.568Z,99.99
2019-02-09T04:04:41.482Z,99.64
2019-02-09T04:06:34.257Z,99.99
2019-02-09T04:07:34.181Z,99.73
2019-02-09T04:09:26.952Z,99.99
2019-02-09T04:10:26.864Z,99.97
2019-02-09T04:12:19.631Z,99.26
2019-02-09T04:13:19.548Z,99.69
2019-02-09T04:15:12.310Z,99.99
2019-02-09T04:16:12.237Z,99.99
2019-02-09T04:18:05.018Z,99.40
2019-02-09T04:19:04.963Z,98.64
2019-02-09T04:20:57.698Z,98.74
2019-02-09T04:21:57.626Z,99.59
2019-02-09T04:23:50.400Z,98.83
2019-02-09T04:24:50.322Z,98.45
2019-02-09T04:26:43.124Z,99.02
2019-02-09T04:27:43.052Z,99.99
2019-02-09T04:29:35.827Z,98.55
2019-02-09T04:30:35.745Z,99.99
2019-02-09T04:32:28.542Z,98.55
2019-02-09T04:33:28.461Z,98.36
2019-02-09T04:35:21.213Z,98.45
2019-02-09T04:36:21.142Z,98.26
2019-02-09T04:38:13.943Z,97.78
2019-02-09T04:39:13.839Z,97.50
2019-02-09T04:41:06.627Z,97.12
2019-02-09T04:42:06.552Z,96.93
2019-02-09T04:43:59.320Z,96.17
2019-02-09T04:44:59.250Z,96.93
2019-02-09T04:46:51.991Z,96.93
2019-02-09T04:47:51.930Z,97.22
2019-02-09T04:49:44.695Z,97.12
2019-02-09T04:50:44.622Z,97.50
2019-02-09T04:52:37.382Z,97.31
2019-02-09T04:53:37.305Z,96.36
2019-02-09T04:55:30.081Z,96.74
2019-02-09T04:56:29.992Z,96.55
2019-02-09T04:58:22.836Z,96.84
2019-02-09T04:59:22.689Z,96.55
2019-02-09T05:01:15.465Z,96.36
2019-02-09T05:02:15.393Z,96.55
2019-02-09T05:04:08.247Z,95.60
2019-02-09T05:05:08.076Z,96.45
2019-02-09T05:07:00.841Z,96.26
2019-02-09T05:08:00.773Z,96.26
2019-02-09T05:09:53.584Z,96.36
2019-02-09T05:10:53.499Z,96.36
2019-02-09T05:12:46.280Z,96.26
2019-02-09T05:13:46.192Z,96.65
2019-02-09T05:15:38.981Z,96.36
2019-02-09T05:16:38.906Z,96.08
2019-02-09T05:18:31.669Z,95.79
2019-02-09T05:19:31.590Z,96.08
2019-02-09T05:21:24.350Z,96.65
2019-02-09T05:22:24.281Z,96.36
2019-02-09T05:24:17.046Z,96.26
2019-02-09T05:25:16.965Z,96.65
2019-02-09T05:27:09.752Z,96.36
2019-02-09T05:28:09.683Z,95.84
2019-02-09T05:30:02.472Z,96.22
2019-02-09T05:31:02.385Z,96.36
2019-02-09T05:32:55.162Z,96.31
2019-02-09T05:33:55.119Z,96.17
2019-02-09T05:35:47.862Z,96.45
2019-02-09T05:36:47.787Z,96.36
2019-02-09T05:38:40.554Z,96.50
2019-02-09T05:39:40.484Z,96.41
2019-02-09T05:41:33.243Z,96.93
2019-02-09T05:42:33.171Z,96.69
2019-02-09T05:44:25.951Z,96.45
2019-02-09T05:45:25.866Z,96.79
2019-02-09T05:47:18.648Z,96.60
2019-02-09T05:48:18.575Z,96.36
2019-02-09T05:50:11.354Z,96.79
2019-02-09T05:51:11.274Z,96.65
2019-02-09T05:53:04.048Z,99.50
2019-02-09T05:54:03.965Z,99.93
2019-02-09T05:55:56.741Z,99.99
2019-02-09T05:56:56.670Z,99.99
2019-02-09T05:58:49.486Z,99.99
2019-02-09T05:59:49.378Z,99.99
2019-02-09T06:01:42.187Z,99.99
2019-02-09T06:02:42.061Z,99.99
2019-02-09T06:04:34.858Z,99.99
2019-02-09T06:05:34.773Z,99.99
2019-02-09T06:07:27.577Z,99.99
2019-02-09T06:08:27.505Z,99.99
2019-02-09T06:10:20.294Z,99.99
2019-02-09T06:11:20.203Z,99.99
2019-02-09T06:13:12.986Z,99.99
2019-02-09T06:14:12.917Z,99.99
2019-02-09T06:16:05.684Z,99.99
2019-02-09T06:17:05.619Z,99.99
2019-02-09T06:18:58.417Z,99.99
2019-02-09T06:19:58.293Z,99.99
2019-02-09T06:21:51.253Z,99.99
2019-02-09T06:22:51.076Z,99.99
2019-02-09T06:24:43.859Z,99.99
2019-02-09T06:25:43.773Z,99.99
2019-02-09T06:27:36.617Z,99.99
2019-02-09T06:28:36.471Z,99.99
2019-02-09T06:30:29.260Z,99.99
2019-02-09T06:31:29.170Z,99.99
2019-02-09T06:33:21.994Z,99.99
2019-02-09T06:34:21.873Z,99.99
2019-02-09T06:36:14.644Z,99.99
2019-02-09T06:37:14.569Z,99.99
2019-02-09T06:39:07.358Z,99.99
2019-02-09T06:40:07.282Z,99.99
2019-02-09T06:42:00.046Z,99.99
2019-02-09T06:42:59.971Z,99.99
2019-02-09T06:44:52.776Z,99.99
2019-02-09T06:45:52.676Z,99.99
2019-02-09T06:47:45.510Z,99.99
2019-02-09T06:48:45.428Z,99.99
2019-02-09T06:50:38.239Z,99.99
2019-02-09T06:51:38.161Z,99.99
2019-02-09T06:53:30.960Z,99.99
2019-02-09T06:54:30.862Z,99.99
2019-02-09T06:56:23.619Z,99.99
2019-02-09T06:57:23.547Z,99.99
2019-02-09T06:59:16.344Z,99.99
2019-02-09T07:00:16.256Z,99.99
2019-02-09T07:02:09.016Z,99.99
2019-02-09T07:03:08.960Z,99.99
2019-02-09T07:05:01.722Z,99.99
2019-02-09T07:06:01.624Z,99.99
2019-02-09T07:07:54.410Z,99.99
2019-02-09T07:08:54.326Z,99.99
2019-02-09T07:10:47.111Z,99.99
2019-02-09T07:11:47.027Z,99.99
2019-02-09T07:13:40.796Z,99.99
2019-02-09T07:14:39.712Z,99.99
2019-02-09T07:16:32.496Z,99.99
2019-02-09T07:17:32.405Z,99.99
2019-02-09T07:19:26.162Z,99.99
2019-02-09T07:20:25.107Z,99.99
2019-02-09T07:22:17.864Z,99.99
2019-02-09T07:23:17.792Z,99.99
2019-02-09T07:25:10.569Z,99.99
2019-02-09T07:26:10.489Z,99.99
2019-02-09T07:28:03.240Z,99.99
2019-02-09T07:29:03.168Z,99.99
2019-02-09T07:30:55.964Z,99.99
2019-02-09T07:31:56.614Z,99.99
2019-02-09T07:33:48.727Z,99.99
2019-02-09T07:34:48.625Z,99.99
2019-02-09T07:36:41.384Z,99.99
2019-02-09T07:37:41.305Z,99.99
2019-02-09T07:39:34.076Z,99.99
2019-02-09T07:40:33.997Z,99.99
2019-02-09T07:42:26.764Z,99.99
2019-02-09T07:43:26.693Z,99.99
2019-02-09T07:45:19.462Z,99.99
2019-02-09T07:46:19.387Z,99.99
2019-02-09T07:48:12.222Z,99.99
2019-02-09T07:49:12.143Z,99.99
2019-02-09T07:51:04.917Z,99.99
2019-02-09T07:52:04.844Z,99.99
2019-02-09T07:53:57.614Z,99.99
2019-02-09T07:54:57.521Z,99.99
2019-02-09T07:56:50.297Z,99.99
2019-02-09T07:57:50.221Z,99.99
2019-02-09T07:59:43.017Z,99.99
2019-02-09T08:00:42.921Z,99.99
2019-02-09T08:02:35.678Z,99.99
2019-02-09T08:03:35.604Z,99.99
2019-02-09T08:05:28.395Z,99.99
2019-02-09T08:06:28.303Z,99.99
2019-02-09T08:08:21.074Z,99.99
2019-02-09T08:09:20.997Z,99.99
2019-02-09T08:11:13.775Z,99.99
2019-02-09T08:12:13.699Z,99.99
2019-02-09T08:14:06.447Z,99.99
2019-02-09T08:15:06.380Z,99.99
2019-02-09T08:16:59.213Z,99.99
2019-02-09T08:17:59.125Z,99.99
2019-02-09T08:19:51.897Z,99.99
2019-02-09T08:20:51.819Z,99.99
2019-02-09T08:22:44.576Z,99.99
2019-02-09T08:23:44.507Z,99.99
2019-02-09T08:25:37.284Z,99.99
2019-02-09T08:26:37.195Z,99.99
2019-02-09T08:28:30.106Z,99.99
2019-02-09T08:29:30.047Z,99.99
2019-02-09T08:31:22.821Z,99.99
2019-02-09T08:32:22.736Z,99.99
2019-02-09T08:34:15.489Z,99.99
2019-02-09T08:35:15.421Z,99.99
2019-02-09T08:37:08.205Z,99.99
2019-02-09T08:38:08.115Z,99.99
2019-02-09T08:40:00.913Z,99.99
2019-02-09T08:41:00.835Z,99.99
2019-02-09T08:42:53.635Z,99.99
2019-02-09T08:43:53.518Z,99.99
2019-02-09T08:45:46.302Z,99.99
2019-02-09T08:46:46.210Z,99.99
2019-02-09T08:48:39.095Z,99.99
2019-02-09T08:49:39.010Z,99.99
2019-02-09T08:51:31.782Z,99.99
2019-02-09T08:52:31.700Z,99.99
2019-02-09T08:54:24.477Z,99.99
2019-02-09T08:55:24.406Z,99.99
2019-02-09T08:57:17.198Z,99.99
2019-02-09T08:58:17.106Z,99.99
2019-02-09T09:00:09.899Z,99.99
2019-02-09T09:01:09.802Z,99.99
2019-02-09T09:03:02.590Z,99.99
2019-02-09T09:04:02.513Z,99.99
2019-02-09T09:05:55.283Z,99.99
2019-02-09T09:06:55.201Z,99.99
2019-02-09T09:08:47.952Z,99.99
2019-02-09T09:09:47.888Z,99.99
2019-02-09T09:11:40.670Z,99.99
2019-02-09T09:12:40.582Z,99.99
2019-02-09T09:14:33.343Z,99.99
2019-02-09T09:15:33.273Z,99.99
2019-02-09T09:17:26.060Z,99.99
2019-02-09T09:18:25.991Z,99.99
2019-02-09T09:20:18.750Z,99.99
2019-02-09T09:21:18.669Z,99.99
2019-02-09T09:23:11.492Z,99.99
2019-02-09T09:24:11.416Z,99.99
2019-02-09T09:26:04.211Z,99.99
2019-02-09T09:27:04.160Z,99.99
2019-02-09T09:28:56.897Z,99.99
2019-02-09T09:29:56.846Z,99.99
2019-02-09T09:31:49.632Z,99.19
2019-02-09T09:32:49.541Z,99.19
2019-02-09T09:34:42.318Z,96.66
2019-02-09T09:35:42.263Z,97.52
2019-02-09T09:37:35.046Z,97.61
2019-02-09T09:38:34.971Z,97.80
2019-02-09T09:40:27.760Z,96.66
2019-02-09T09:41:27.676Z,97.52
2019-02-09T09:43:20.459Z,96.61
2019-02-09T09:44:20.398Z,96.42
2019-02-09T09:46:13.278Z,97.08
2019-02-09T09:47:13.207Z,95.89
2019-02-09T09:49:05.996Z,99.52
2019-02-09T09:50:05.923Z,99.99
2019-02-09T09:51:58.721Z,99.99
2019-02-09T09:52:58.654Z,99.99
2019-02-09T09:54:51.433Z,99.99
2019-02-09T09:55:51.383Z,99.99
2019-02-09T09:57:44.200Z,96.47
2019-02-09T09:58:44.125Z,94.79
2019-02-09T10:00:36.922Z,98.32
2019-02-09T10:01:36.895Z,99.99
2019-02-09T10:03:29.622Z,99.99
2019-02-09T10:04:29.564Z,99.99
2019-02-09T10:06:22.355Z,99.99
2019-02-09T10:07:22.282Z,99.99
2019-02-09T10:09:15.075Z,99.99
2019-02-09T10:10:15.004Z,99.99
2019-02-09T10:12:07.780Z,99.99
2019-02-09T10:13:07.707Z,99.99
2019-02-09T10:15:00.477Z,99.99
2019-02-09T10:16:00.416Z,99.99
2019-02-09T10:17:53.206Z,99.99
2019-02-09T10:18:53.168Z,99.99
2019-02-09T10:20:45.985Z,98.99
2019-02-09T10:21:45.870Z,98.47
2019-02-09T10:23:38.604Z,97.33
2019-02-09T10:24:38.545Z,95.94
2019-02-09T10:26:31.386Z,93.88
2019-02-09T10:27:31.275Z,92.40
2019-02-09T10:29:24.094Z,92.97
2019-02-09T10:30:24.043Z,93.21
2019-02-09T10:32:16.820Z,91.92
2019-02-09T10:33:16.803Z,89.33
2019-02-09T10:35:09.538Z,91.68
2019-02-09T10:36:09.509Z,93.12
2019-02-09T10:38:02.276Z,89.62
2019-02-09T10:39:02.189Z,89.33
2019-02-09T10:40:55.089Z,90.15
2019-02-09T10:41:55.025Z,90.48
2019-02-09T10:43:47.803Z,90.05
2019-02-09T10:44:47.831Z,89.19
2019-02-09T10:46:40.539Z,87.27
2019-02-09T10:47:40.462Z,86.69
2019-02-09T10:49:33.294Z,86.02
2019-02-09T10:50:33.213Z,85.79
2019-02-09T10:52:26.075Z,88.28
2019-02-09T10:53:26.002Z,86.50
2019-02-09T10:55:18.789Z,87.13
2019-02-09T10:56:18.727Z,88.28
2019-02-09T10:58:11.516Z,86.69
2019-02-09T10:59:11.439Z,85.45
2019-02-09T11:01:04.310Z,86.27
2019-02-09T11:02:04.171Z,84.83
2019-02-09T11:03:56.960Z,86.55
2019-02-09T11:04:56.876Z,86.80
2019-02-09T11:06:49.655Z,88.91
2019-02-09T11:07:49.586Z,90.82
2019-02-09T11:09:42.408Z,93.45
2019-02-09T11:10:42.316Z,92.83
2019-02-09T11:12:35.743Z,94.60
2019-02-09T11:13:35.635Z,93.65
2019-02-09T11:15:28.390Z,95.94
2019-02-09T11:16:28.352Z,96.66
2019-02-09T11:18:22.067Z,96.84
2019-02-09T11:19:21.964Z,97.22
2019-02-09T11:21:15.004Z,99.13
2019-02-09T11:22:14.837Z,99.23
2019-02-09T11:24:07.634Z,98.47
2019-02-09T11:25:07.596Z,98.94
2019-02-09T11:27:00.409Z,97.71
2019-02-09T11:28:00.281Z,97.22
2019-02-09T11:29:53.126Z,97.42
2019-02-09T11:30:53.056Z,98.42
2019-02-09T11:32:45.851Z,97.71
2019-02-09T11:33:45.773Z,97.61
2019-02-09T11:35:38.574Z,97.66
2019-02-09T11:36:38.500Z,97.51
2019-02-09T11:38:31.307Z,96.66
2019-02-09T11:39:31.245Z,97.22
2019-02-09T11:41:24.075Z,96.46
2019-02-09T11:42:24.378Z,96.75
2019-02-09T11:44:17.678Z,95.98
2019-02-09T11:45:18.258Z,97.71
2019-02-09T11:47:10.423Z,96.70
2019-02-09T11:48:10.333Z,97.75
2019-02-09T11:50:03.374Z,97.42
2019-02-09T11:51:03.325Z,95.89
2019-02-09T11:52:56.102Z,94.84
2019-02-09T11:53:56.089Z,95.22
2019-02-09T11:55:48.783Z,94.65
2019-02-09T11:56:48.723Z,94.17
2019-02-09T11:58:42.096Z,92.74
2019-02-09T11:59:41.436Z,93.74
2019-02-09T12:01:36.034Z,93.65
2019-02-09T12:02:34.372Z,92.65
2019-02-09T12:04:27.159Z,92.83
2019-02-09T12:05:27.041Z,93.88
2019-02-09T12:07:19.867Z,93.46
2019-02-09T12:08:19.908Z,94.89
2019-02-09T12:10:12.598Z,94.98
2019-02-09T12:11:12.501Z,94.41
2019-02-09T12:13:05.271Z,95.46
2019-02-09T12:14:05.199Z,95.65
2019-02-09T12:15:57.961Z,96.80
2019-02-09T12:16:57.897Z,96.80
2019-02-09T12:18:50.662Z,97.85
2019-02-09T12:19:50.583Z,98.51
2019-02-09T12:21:43.390Z,97.66
2019-02-09T12:22:43.301Z,98.99
2019-02-09T12:24:36.079Z,99.13
2019-02-09T12:25:36.018Z,98.85
2019-02-09T12:27:28.802Z,97.51
2019-02-09T12:28:28.720Z,98.36
2019-02-09T12:30:21.488Z,97.22
2019-02-09T12:31:21.428Z,97.61
2019-02-09T12:33:22.564Z,99.99
2019-02-09T12:34:14.165Z,98.56
2019-02-09T12:36:06.919Z,99.99
2019-02-09T12:37:06.942Z,99.99
2019-02-09T12:38:59.688Z,99.99
2019-02-09T12:39:59.723Z,99.99
2019-02-09T12:41:52.403Z,99.99
2019-02-09T12:42:52.309Z,99.99
2019-02-09T12:44:45.103Z,99.99
2019-02-09T12:45:45.048Z,99.99
2019-02-09T12:47:37.881Z,99.99
2019-02-09T12:48:37.790Z,99.99
2019-02-09T12:50:30.562Z,99.99
2019-02-09T12:51:30.492Z,99.99
2019-02-09T12:53:23.382Z,99.99
2019-02-09T12:54:23.187Z,99.99
2019-02-09T12:56:15.979Z,99.99
2019-02-09T12:57:15.915Z,99.99
2019-02-09T12:59:14.818Z,99.99
2019-02-09T13:00:08.646Z,99.66
2019-02-09T13:02:01.453Z,98.22
2019-02-09T13:03:01.369Z,98.61
2019-02-09T13:04:54.153Z,98.90
2019-02-09T13:05:54.081Z,98.03
2019-02-09T13:07:46.940Z,98.61
2019-02-09T13:08:46.842Z,96.70
2019-02-09T13:10:39.654Z,98.32
2019-02-09T13:11:39.563Z,96.22
2019-02-09T13:13:32.381Z,96.98
2019-02-09T13:14:32.289Z,97.94
2019-02-09T13:16:25.084Z,97.85
2019-02-09T13:17:25.013Z,97.37
2019-02-09T13:19:17.787Z,98.51
2019-02-09T13:20:17.725Z,96.84
2019-02-09T13:22:10.485Z,98.46
2019-02-09T13:23:10.424Z,99.13
2019-02-09T13:25:03.185Z,99.22
2019-02-09T13:26:03.124Z,99.51
2019-02-09T13:27:55.939Z,98.94
2019-02-09T13:28:55.850Z,99.13
2019-02-09T13:30:48.728Z,97.41
2019-02-09T13:31:48.598Z,96.94
2019-02-09T13:33:41.554Z,99.22
2019-02-09T13:34:41.437Z,99.99
2019-02-09T13:36:34.235Z,99.22
2019-02-09T13:37:34.212Z,99.51
2019-02-09T13:39:27.065Z,99.51
2019-02-09T13:40:26.980Z,99.51
2019-02-09T13:42:19.774Z,99.60
2019-02-09T13:43:19.693Z,99.22
2019-02-09T13:45:12.564Z,99.41
2019-02-09T13:46:12.519Z,99.99
2019-02-09T13:48:06.611Z,99.32
2019-02-09T13:49:06.422Z,97.94
2019-02-09T13:50:59.196Z,98.13
2019-02-09T13:51:59.160Z,98.80
2019-02-09T13:53:53.187Z,97.37
2019-02-09T13:54:52.605Z,96.89
2019-02-09T13:56:45.364Z,96.89
2019-02-09T13:57:45.408Z,97.46
2019-02-09T13:59:38.544Z,97.66
2019-02-09T14:00:38.024Z,97.17
2019-02-09T14:02:30.887Z,96.32
2019-02-09T14:03:30.843Z,96.32
2019-02-09T14:05:23.884Z,95.84
2019-02-09T14:06:23.813Z,95.17
2019-02-09T14:08:16.618Z,93.46
2019-02-09T14:09:16.586Z,92.03
2019-02-09T14:11:09.313Z,93.36
2019-02-09T14:12:09.297Z,93.84
2019-02-09T14:14:02.059Z,94.12
2019-02-09T14:15:01.954Z,92.88
2019-02-09T14:16:54.772Z,92.69
2019-02-09T14:17:54.698Z,92.88
2019-02-09T14:19:47.479Z,92.03
2019-02-09T14:20:47.398Z,91.46
2019-02-09T14:22:40.186Z,91.55
2019-02-09T14:23:40.098Z,90.59
2019-02-09T14:25:32.916Z,89.17
2019-02-09T14:26:32.890Z,90.22
2019-02-09T14:28:25.622Z,89.93
2019-02-09T14:29:25.538Z,89.26
2019-02-09T14:31:18.443Z,89.17
2019-02-09T14:32:18.364Z,88.35
2019-02-09T14:34:11.133Z,88.50
2019-02-09T14:35:11.027Z,87.54
2019-02-09T14:37:03.968Z,85.93
2019-02-09T14:38:03.908Z,85.49
2019-02-09T14:39:56.698Z,88.40
2019-02-09T14:40:56.615Z,87.35
2019-02-09T14:42:49.404Z,86.40
2019-02-09T14:43:49.324Z,85.54
2019-02-09T14:45:42.166Z,86.69
2019-02-09T14:46:42.017Z,86.30
2019-02-09T14:48:34.823Z,87.74
2019-02-09T14:49:34.750Z,86.69
2019-02-09T14:51:27.508Z,87.35
2019-02-09T14:52:27.437Z,87.35
2019-02-09T14:54:20.275Z,88.31
2019-02-09T14:55:20.137Z,87.35
2019-02-09T14:57:12.905Z,87.16
2019-02-09T14:58:14.294Z,87.35
2019-02-09T15:00:05.632Z,89.07
2019-02-09T15:01:05.769Z,87.54
2019-02-09T15:02:58.546Z,87.54
2019-02-09T15:04:02.843Z,86.78
2019-02-09T15:05:51.103Z,87.93
2019-02-09T15:06:51.008Z,88.88
2019-02-09T15:08:43.807Z,89.03
2019-02-09T15:09:43.738Z,87.88
2019-02-09T15:11:36.532Z,89.40
2019-02-09T15:12:36.496Z,89.79
2019-02-09T15:14:29.341Z,89.40
2019-02-09T15:15:29.262Z,88.74
2019-02-09T15:17:22.054Z,88.36
2019-02-09T15:18:21.962Z,87.88
2019-02-09T15:20:14.748Z,88.26
2019-02-09T15:21:14.664Z,87.31
2019-02-09T15:23:07.481Z,89.69
2019-02-09T15:24:07.387Z,89.03
2019-02-09T15:26:00.189Z,88.84
2019-02-09T15:27:00.107Z,87.79
2019-02-09T15:28:52.883Z,87.69
2019-02-09T15:29:52.808Z,86.55
2019-02-09T15:31:45.769Z,88.07
2019-02-09T15:32:45.671Z,87.79
2019-02-09T15:34:38.450Z,89.12
2019-02-09T15:35:38.450Z,89.40
2019-02-09T15:37:31.156Z,88.74
2019-02-09T15:38:31.050Z,88.74
2019-02-09T15:40:23.850Z,89.69
2019-02-09T15:41:23.837Z,88.07
2019-02-09T15:43:16.634Z,87.79
2019-02-09T15:44:16.604Z,88.45
2019-02-09T15:46:09.368Z,88.07
2019-02-09T15:47:09.286Z,89.60
2019-02-09T15:49:02.126Z,87.69
2019-02-09T15:50:02.142Z,89.12
2019-02-09T15:51:54.811Z,90.60
2019-02-09T15:52:54.747Z,89.26
2019-02-09T15:54:47.659Z,88.93
2019-02-09T15:55:47.633Z,88.17
2019-02-09T15:57:40.336Z,88.89
2019-02-09T15:58:40.254Z,89.50
2019-02-09T16:00:33.057Z,89.55
2019-02-09T16:01:32.974Z,90.22
2019-02-09T16:03:25.751Z,90.31
2019-02-09T16:04:25.670Z,90.89
2019-02-09T16:06:18.444Z,90.12
2019-02-09T16:07:18.377Z,90.60
2019-02-09T16:09:11.144Z,91.94
2019-02-09T16:10:11.069Z,90.03
2019-02-09T16:12:03.839Z,91.27
2019-02-09T16:13:03.771Z,91.94
2019-02-09T16:14:56.567Z,92.50
2019-02-09T16:15:56.485Z,97.36
2019-02-09T16:17:49.236Z,99.99
2019-02-09T16:18:49.172Z,99.99
2019-02-09T16:20:41.969Z,99.99
2019-02-09T16:21:41.889Z,99.99
2019-02-09T16:23:34.694Z,99.99
2019-02-09T16:24:34.616Z,99.99
2019-02-09T16:26:27.379Z,99.99
2019-02-09T16:27:27.317Z,99.99
2019-02-09T16:29:20.090Z,99.99
2019-02-09T16:30:20.015Z,99.99
2019-02-09T16:32:12.818Z,99.99
2019-02-09T16:33:12.747Z,99.99
2019-02-09T16:35:05.526Z,99.99
2019-02-09T16:36:05.442Z,99.99
2019-02-09T16:37:58.215Z,99.99
2019-02-09T16:38:58.171Z,99.99
2019-02-09T16:40:50.894Z,99.99
2019-02-09T16:41:50.817Z,99.99
2019-02-09T16:43:43.592Z,99.99
2019-02-09T16:44:43.507Z,99.99
2019-02-09T16:46:36.271Z,99.99
2019-02-09T16:47:36.203Z,99.99
2019-02-09T16:49:28.989Z,99.99
2019-02-09T16:50:28.913Z,99.99
2019-02-09T16:52:21.666Z,99.99
2019-02-09T16:53:21.601Z,99.93
2019-02-09T16:55:14.378Z,99.46
2019-02-09T16:56:14.295Z,97.46
2019-02-09T16:58:07.061Z,96.17
2019-02-09T16:59:06.992Z,95.70
2019-02-09T17:00:59.758Z,95.32
2019-02-09T17:01:59.671Z,94.74
2019-02-09T17:03:52.441Z,96.41
2019-02-09T17:04:52.376Z,95.12
2019-02-09T17:06:45.117Z,95.75
2019-02-09T17:07:45.061Z,96.79
2019-02-09T17:09:37.854Z,96.31
2019-02-09T17:10:37.743Z,95.41
2019-02-09T17:12:30.513Z,96.55
2019-02-09T17:13:30.447Z,95.32
2019-02-09T17:15:23.439Z,94.08
2019-02-09T17:16:23.141Z,94.65
2019-02-09T17:18:15.910Z,94.37
2019-02-09T17:19:15.856Z,93.41
2019-02-09T17:21:08.595Z,94.65
2019-02-09T17:22:08.518Z,94.17
2019-02-09T17:24:01.301Z,95.32
2019-02-09T17:25:01.260Z,94.84
2019-02-09T17:26:53.974Z,94.74
2019-02-09T17:27:53.906Z,94.84
2019-02-09T17:29:46.703Z,94.46
2019-02-09T17:30:46.672Z,94.65
2019-02-09T17:32:39.457Z,94.74
2019-02-09T17:33:39.302Z,95.12
2019-02-09T17:35:32.095Z,95.32
2019-02-09T17:36:32.023Z,95.32
2019-02-09T17:38:24.816Z,95.60
2019-02-09T17:39:24.737Z,95.60
2019-02-09T17:41:17.533Z,97.13
2019-02-09T17:42:17.459Z,97.31
2019-02-09T17:44:10.243Z,98.18
2019-02-09T17:45:10.189Z,98.27
2019-02-09T17:47:02.939Z,99.99
2019-02-09T17:48:02.877Z,99.99
2019-02-09T17:49:55.659Z,99.99
2019-02-09T17:50:55.569Z,99.99
2019-02-09T17:52:48.351Z,99.99
2019-02-09T17:53:48.293Z,99.99
2019-02-09T17:55:41.201Z,99.99
2019-02-09T17:56:40.992Z,99.99
2019-02-09T17:58:33.786Z,99.99
2019-02-09T17:59:33.855Z,99.99
2019-02-09T18:01:26.524Z,99.99
2019-02-09T18:02:26.425Z,99.99
2019-02-09T18:04:19.255Z,99.99
2019-02-09T18:05:19.142Z,99.99
2019-02-09T18:07:11.926Z,99.99
2019-02-09T18:08:11.839Z,99.99
2019-02-09T18:10:04.620Z,99.99
2019-02-09T18:11:04.528Z,99.99
2019-02-09T18:12:57.344Z,99.99
2019-02-09T18:13:57.359Z,99.99
2019-02-09T18:15:50.067Z,99.99
2019-02-09T18:16:50.039Z,99.99
2019-02-09T18:18:42.747Z,99.99
2019-02-09T18:19:42.687Z,99.99
2019-02-09T18:21:35.500Z,99.99
2019-02-09T18:22:35.426Z,99.99
2019-02-09T18:24:28.212Z,99.99
2019-02-09T18:25:28.115Z,99.99
2019-02-09T18:27:20.895Z,99.99
2019-02-09T18:28:20.830Z,99.99
2019-02-09T18:30:13.648Z,99.99
2019-02-09T18:31:13.565Z,99.99
2019-02-09T18:33:06.389Z,99.99